Air Resources Laboratory banner image
Air Resources Laboratory web site National Oceanic and Atmospheric Administration (NOAA)

ny metar


KALB 132351Z 00000KT 10SM FEW080 23/09 A3007 RMK AO2 SLP180 T02330094 10261
 20228 55000=
KART 132356Z AUTO 26005KT 10SM CLR 21/12 A3008 RMK AO2 SLP183 T02110117 10261
 20211 55001=
KBGM 132353Z 02004KT 10SM CLR 19/08 A3011 RMK AO2 SLP192 T01940078 10244 20194
 53002=
KBNL 132355Z AUTO 00000KT 10SM FEW055 28/18 A3003 RMK AO2=
KBUF 132354Z 05005KT 10SM BKN170 BKN250 22/09 A3009 RMK AO2 SLP187 T02220089
 10267 20222 56004=
KDKK 132353Z AUTO 00000KT 10SM CLR 21/12 A3010 RMK AO2 SLP190 T02060122 10256
 20206 55006 $=
KDSV 132354Z AUTO VRB04KT 10SM CLR 23/09 A3008 RMK AO2 SLP194 T02280094 10278
 20222 55003=
KELM 132353Z 02004KT 10SM CLR 21/09 A3007 RMK AO2 SLP182 T02060089 10278 20206
 53001=
KELZ 132356Z AUTO 01005KT 10SM OVC070 21/08 A3013 RMK AO2 SLP200 T02110083
 10256 20211 55000=
KFOK 132353Z 31003KT 10SM CLR 21/11 A3007 RMK AO2 SLP183 T02060106 10267 20206
 53004 $=
KFRG 132353Z 08003KT 10SM CLR 23/09 A3007 RMK AO2 SLP180 T02330089 10267 20233
 53005=
KFZY 132354Z AUTO 00000KT 10SM CLR 19/13 A3009 RMK AO2 SLP188 T01940128 10250
 20194 55003=
KGFL 132353Z AUTO 32003KT 10SM FEW080 17/12 A3007 RMK AO2 SLP182 T01720122
 10250 20172 53004=
KGTB 132356Z AUTO 30005KT 10SM BKN075 21/09 A3006 RMK AO2 SLP178 T02130092
 10254 20213 55000 FZRANO $=
KHWV 132356Z AUTO 26003KT 10SM CLR 21/10 A3007 RMK AO2 SLP180 T02110100 10267
 20211 53004 $=
KIAG 132353Z 10003KT 10SM CLR 23/09 A3008 RMK AO2 SLP184 T02280094 10267 20228
 55005 $=
KISP 132356Z 00000KT 10SM SCT075 23/09 A3006 RMK AO2 SLP178 T02330089 10272
 20233 53005=
KITH 132356Z 05003KT 10SM CLR 20/11 A3010 RMK AO2 SLP192 T02000111 10250 20200
 55005 $=
KJFK 132351Z 06005KT 10SM FEW070 FEW200 24/09 A3006 RMK AO2 SLP180 T02390089
 10272 20239 53004=
KJHW 132356Z AUTO 34004KT 10SM CLR 19/07 A3014 RMK AO2 SLP207 T01890072 10228
 20189 55000=
KLGA 132351Z 08007KT 10SM FEW075 SCT200 24/08 A3005 RMK AO2 SLP176 T02440078
 10267 20239 53004=
KMGJ 132354Z AUTO 33003KT 10SM CLR 20/11 A3006 RMK AO2 SLP177 T02000106 10267
 20200 53004 $=
KMSS 132353Z AUTO 00000KT 10SM CLR 18/14 A3009 RMK AO2 SLP189 T01830144 10250
 20178 55004=
KMSV 132356Z AUTO 36005KT 10SM CLR 21/07 A3011 RMK AO2 SLP192 T02060072 10256
 20206 53003=
KMTP 132354Z AUTO 00000KT 23/14 A3006 RMK AO1 SLP177 T02280144 10261 20228
 53005=
KNYC 132351Z AUTO 00000KT 10SM CLR 23/09 A3009 RMK AO2 SLP179 T02280089 10261
 20228 53003 $=
KOGS 132355Z AUTO 00000KT 10SM CLR 17/14 A3006 RMK AO2=
KOLE 132355Z AUTO 34004KT 10SM SCT070 18/09 A3014 RMK AO2=
KPBG 132353Z AUTO 02003KT 10SM CLR 20/09 A3007 RMK AO2 SLP183 T02000089 10239
 20200 55002=
KPEO 132353Z AUTO VRB03KT 10SM CLR 22/10 A3010 RMK AO2 SLP190 T02170100 10256
 20217 53001=
KPOU 132353Z 04004KT 10SM BKN080 23/09 A3005 RMK AO2 SLP171 T02280089 10278
 20228 53005=
KRME 132353Z 24005KT 10SM BKN070 22/10 A3009 RMK AO2 SLP188 T02170100 10256
 20211 53001=
KROC 132354Z 05006KT 10SM FEW050 FEW220 22/07 A3010 RMK AO2 SLP193 T02220072
 10261 20222 55003 $=
KSCH 132345Z 00000KT 15SM BKN080 22/09 A3008=
KSLK 132351Z AUTO 00000KT 10SM CLR 16/10 A3011 RMK AO2 SLP198 T01560100 10228
 20150 53001=
KSWF 132345Z 06005KT 10SM FEW050 24/08 A3006=
KSYR 132354Z 34004KT 10SM FEW060 FEW200 21/09 A3009 RMK AO2 SLP183 T02110089
 10261 20211 55004 $=